createdAt,value
2023-01-17T00:01:04.689Z,58.85
2023-01-17T00:06:24.958Z,59.18
2023-01-17T00:11:26.429Z,58.09
2023-01-17T00:16:27.917Z,58.36
2023-01-17T00:21:47.711Z,58.46
2023-01-17T00:27:07.585Z,58.95
2023-01-17T00:32:09.026Z,58.50
2023-01-17T00:37:10.465Z,58.35
2023-01-17T00:42:11.898Z,57.01
2023-01-17T00:47:31.973Z,56.27
2023-01-17T00:52:52.129Z,56.57
2023-01-17T00:58:11.796Z,56.09
2023-01-17T01:03:32.367Z,55.42
2023-01-17T01:08:52.183Z,55.54
2023-01-17T01:14:12.339Z,56.14
2023-01-17T01:19:32.077Z,55.19
2023-01-17T01:24:52.282Z,55.20
2023-01-17T01:30:12.274Z,54.84
2023-01-17T01:35:13.841Z,55.79
2023-01-17T01:40:15.722Z,54.76
2023-01-17T01:45:19.368Z,56.27
2023-01-17T01:50:20.851Z,55.47
2023-01-17T01:55:29.895Z,55.53
2023-01-17T02:00:34.575Z,56.14
2023-01-17T02:05:36.162Z,55.57
2023-01-17T02:10:39.319Z,54.49
2023-01-17T02:15:54.321Z,53.63
2023-01-17T02:21:17.433Z,55.56
2023-01-17T02:26:41.347Z,56.33
2023-01-17T02:31:54.061Z,56.46
2023-01-17T02:37:08.220Z,57.32
2023-01-17T02:42:11.223Z,59.14
2023-01-17T02:47:26.350Z,61.62
2023-01-17T02:52:46.038Z,62.05
2023-01-17T02:58:06.002Z,64.08
2023-01-17T03:03:27.574Z,66.07
2023-01-17T03:08:29.048Z,66.84
2023-01-17T03:13:30.991Z,67.22
2023-01-17T03:18:32.465Z,67.45
2023-01-17T03:23:33.934Z,69.00
2023-01-17T03:28:35.408Z,68.73
2023-01-17T03:33:36.905Z,69.48
2023-01-17T03:38:38.449Z,70.55
2023-01-17T03:43:39.926Z,70.66
2023-01-17T03:48:41.421Z,71.29
2023-01-17T03:53:42.908Z,72.16
2023-01-17T03:58:44.376Z,71.85
2023-01-17T04:03:45.849Z,70.97
2023-01-17T04:08:47.306Z,69.16
2023-01-17T04:13:48.756Z,67.62
2023-01-17T04:18:50.216Z,67.29
2023-01-17T04:23:52.400Z,67.07
2023-01-17T04:28:53.867Z,66.70
2023-01-17T04:33:55.333Z,66.63
2023-01-17T04:38:56.800Z,66.21
2023-01-17T04:43:58.266Z,65.98
2023-01-17T04:49:00.460Z,64.65
2023-01-17T04:54:01.968Z,61.73
2023-01-17T04:59:03.441Z,60.83
2023-01-17T05:04:05.001Z,58.64
2023-01-17T05:09:06.801Z,57.62
2023-01-17T05:14:09.696Z,58.77
2023-01-17T05:19:11.152Z,57.48
2023-01-17T05:24:12.658Z,58.03
2023-01-17T05:29:14.152Z,57.19
2023-01-17T05:34:15.618Z,55.01
2023-01-17T05:39:17.122Z,54.32
2023-01-17T05:44:19.651Z,56.09
2023-01-17T05:49:21.146Z,56.85
2023-01-17T05:54:22.613Z,58.92
2023-01-17T05:59:36.432Z,59.94
2023-01-17T06:04:38.711Z,59.27
2023-01-17T06:09:40.210Z,58.57
2023-01-17T06:14:41.676Z,57.53
2023-01-17T06:19:43.147Z,54.56
2023-01-17T06:24:44.624Z,52.46
2023-01-17T06:29:46.093Z,52.71
2023-01-17T06:34:47.561Z,55.31
2023-01-17T06:39:49.074Z,55.17
2023-01-17T06:44:50.684Z,54.34
2023-01-17T06:49:52.156Z,53.52
2023-01-17T06:54:53.619Z,50.28
2023-01-17T06:59:55.094Z,53.86
2023-01-17T07:04:56.558Z,54.05
2023-01-17T07:09:58.473Z,56.29
2023-01-17T07:14:59.948Z,56.43
2023-01-17T07:20:01.516Z,57.09
2023-01-17T07:25:03.099Z,56.08
2023-01-17T07:30:04.886Z,55.51
2023-01-17T07:35:06.819Z,54.22
2023-01-17T07:40:09.024Z,52.50
2023-01-17T07:45:11.674Z,50.78
2023-01-17T07:50:13.626Z,48.51
2023-01-17T07:55:15.158Z,46.87
2023-01-17T08:00:17.258Z,47.58
2023-01-17T08:05:18.717Z,47.02
2023-01-17T08:10:20.420Z,44.12
2023-01-17T08:15:23.522Z,45.39
2023-01-17T08:20:27.648Z,44.43
2023-01-17T08:25:29.520Z,47.93
2023-01-17T08:30:30.965Z,48.81
2023-01-17T08:35:33.846Z,46.77
2023-01-17T08:40:36.422Z,46.81
2023-01-17T08:45:37.885Z,47.27
2023-01-17T08:50:39.356Z,44.91
2023-01-17T08:55:40.954Z,46.27
2023-01-17T09:00:42.584Z,46.51
2023-01-17T09:05:44.074Z,46.21
2023-01-17T09:10:45.900Z,47.38
2023-01-17T09:15:47.360Z,48.34
2023-01-17T09:20:48.839Z,48.88
2023-01-17T09:25:54.304Z,49.15
2023-01-17T09:30:55.830Z,47.68
2023-01-17T09:36:01.263Z,47.70
2023-01-17T09:41:02.825Z,46.72
2023-01-17T09:46:04.368Z,49.64
2023-01-17T09:51:14.633Z,46.71
2023-01-17T09:56:18.228Z,46.12
2023-01-17T10:01:25.854Z,50.25
2023-01-17T10:06:45.076Z,47.54
2023-01-17T10:11:53.850Z,47.41
2023-01-17T10:17:02.217Z,45.79
2023-01-17T10:22:30.969Z,46.99
2023-01-17T10:27:37.165Z,48.35
2023-01-17T10:32:38.635Z,49.57
2023-01-17T10:37:43.759Z,49.86
2023-01-17T10:43:01.622Z,49.69
2023-01-17T10:48:21.212Z,48.99
2023-01-17T10:53:44.119Z,48.16
2023-01-17T10:58:48.116Z,49.53
2023-01-17T11:03:54.507Z,55.15
2023-01-17T11:08:57.383Z,55.29
2023-01-17T11:14:00.865Z,54.00
2023-01-17T11:19:08.350Z,53.48
2023-01-17T11:24:11.532Z,53.20
2023-01-17T11:29:13.812Z,52.19
2023-01-17T11:34:25.541Z,51.99
2023-01-17T11:39:27.524Z,52.84
2023-01-17T11:44:30.291Z,51.43
2023-01-17T11:49:31.799Z,51.03
2023-01-17T11:54:38.893Z,48.49
2023-01-17T11:59:43.242Z,50.16
2023-01-17T12:05:23.533Z,52.15
2023-01-17T12:10:36.052Z,50.45
2023-01-17T12:15:51.771Z,50.14
2023-01-17T12:21:08.028Z,50.73
2023-01-17T12:26:20.635Z,52.90
2023-01-17T12:31:33.345Z,54.14
2023-01-17T12:37:09.208Z,53.98
2023-01-17T12:42:20.944Z,54.16
2023-01-17T12:47:22.399Z,52.31
2023-01-17T12:52:39.679Z,52.48
2023-01-17T12:57:44.355Z,57.10
2023-01-17T13:03:24.717Z,56.12
2023-01-17T13:08:35.487Z,57.08
2023-01-17T13:13:37.383Z,57.16
2023-01-17T13:18:46.285Z,54.80
2023-01-17T13:23:59.625Z,53.78
2023-01-17T13:29:24.913Z,52.82
2023-01-17T13:34:40.146Z,52.51
2023-01-17T13:39:52.950Z,50.18
2023-01-17T13:44:54.425Z,48.66
2023-01-17T13:49:59.262Z,51.25
2023-01-17T13:55:04.830Z,54.21
2023-01-17T14:00:15.597Z,55.19
2023-01-17T14:05:23.351Z,54.48
2023-01-17T14:10:37.565Z,55.93
2023-01-17T14:15:47.925Z,54.44
2023-01-17T14:20:50.537Z,54.42
2023-01-17T14:25:52.033Z,53.52
2023-01-17T14:30:55.935Z,48.66
2023-01-17T14:35:58.852Z,47.31
2023-01-17T14:41:13.010Z,48.11
2023-01-17T14:46:16.154Z,51.33
2023-01-17T14:51:20.423Z,51.38
2023-01-17T14:56:21.941Z,49.95
2023-01-17T15:01:23.556Z,53.49
2023-01-17T15:06:29.262Z,51.56
2023-01-17T15:11:31.494Z,52.53
2023-01-17T15:16:37.206Z,49.74
2023-01-17T15:21:42.409Z,47.63
2023-01-17T15:26:43.889Z,44.43
2023-01-17T15:31:55.667Z,44.04
2023-01-17T15:37:10.496Z,45.04
2023-01-17T15:42:38.510Z,49.99
2023-01-17T15:47:39.987Z,47.55
2023-01-17T15:52:49.218Z,47.01
2023-01-17T15:57:50.730Z,47.09
2023-01-17T16:02:56.054Z,49.11
2023-01-17T16:08:17.342Z,48.37
2023-01-17T16:13:18.857Z,48.52
2023-01-17T16:18:21.359Z,51.52
2023-01-17T16:23:22.817Z,47.06
2023-01-17T16:28:24.281Z,45.06
2023-01-17T16:33:25.748Z,48.04
2023-01-17T16:38:27.252Z,50.27
2023-01-17T16:43:28.719Z,51.31
2023-01-17T16:48:30.224Z,48.59
2023-01-17T16:53:31.709Z,49.83
2023-01-17T16:58:33.223Z,48.74
2023-01-17T17:03:34.688Z,48.44
2023-01-17T17:08:36.285Z,51.28
2023-01-17T17:13:37.838Z,49.42
2023-01-17T17:18:39.694Z,54.08
2023-01-17T17:23:41.164Z,53.49
2023-01-17T17:28:42.692Z,53.13
2023-01-17T17:33:44.157Z,53.92
2023-01-17T17:38:51.309Z,54.11
2023-01-17T17:43:53.017Z,54.85
2023-01-17T17:48:54.875Z,53.31
2023-01-17T17:54:00.680Z,54.92
2023-01-17T17:59:02.419Z,54.87
2023-01-17T18:04:03.941Z,56.12
2023-01-17T18:09:06.256Z,55.41
2023-01-17T18:14:09.491Z,54.07
2023-01-17T18:19:18.251Z,52.32
2023-01-17T18:24:21.521Z,53.18
2023-01-17T18:29:23.344Z,51.54
2023-01-17T18:34:28.411Z,51.18
2023-01-17T18:39:30.061Z,54.93
2023-01-17T18:44:31.549Z,55.34
2023-01-17T18:49:33.642Z,57.71
2023-01-17T18:54:35.160Z,57.36
2023-01-17T18:59:36.641Z,56.37
2023-01-17T19:04:38.385Z,56.39
2023-01-17T19:09:39.870Z,55.44
2023-01-17T19:14:41.342Z,55.17
2023-01-17T19:19:42.815Z,56.53
2023-01-17T19:24:44.274Z,55.53
2023-01-17T19:29:45.730Z,56.21
2023-01-17T19:34:47.199Z,56.05
2023-01-17T19:39:49.301Z,50.29
2023-01-17T19:44:50.753Z,50.49
2023-01-17T19:49:52.219Z,51.01
2023-01-17T19:54:53.689Z,52.66
2023-01-17T19:59:55.783Z,54.92
2023-01-17T20:04:57.279Z,53.72
2023-01-17T20:09:59.270Z,54.31
2023-01-17T20:15:00.741Z,56.15
2023-01-17T20:20:03.475Z,57.23
2023-01-17T20:25:05.192Z,57.57
2023-01-17T20:30:19.341Z,59.31
2023-01-17T20:35:21.844Z,61.51
2023-01-17T20:40:23.430Z,62.90
2023-01-17T20:45:24.894Z,63.23
2023-01-17T20:50:26.370Z,64.01
2023-01-17T20:55:27.832Z,62.91
2023-01-17T21:00:29.314Z,63.76
2023-01-17T21:05:30.777Z,62.39
2023-01-17T21:10:32.257Z,62.55
2023-01-17T21:15:33.727Z,62.74
2023-01-17T21:20:36.339Z,60.72
2023-01-17T21:25:37.993Z,61.96
2023-01-17T21:30:39.532Z,60.58
2023-01-17T21:35:41.045Z,60.83
2023-01-17T21:40:43.266Z,59.35
2023-01-17T21:45:44.753Z,56.97
2023-01-17T21:50:47.203Z,55.06
2023-01-17T21:56:07.198Z,53.99
2023-01-17T22:01:15.768Z,53.67
2023-01-17T22:06:17.949Z,56.82
2023-01-17T22:11:22.215Z,56.81
2023-01-17T22:16:24.172Z,57.29
2023-01-17T22:21:28.082Z,57.16
2023-01-17T22:26:30.120Z,56.25
2023-01-17T22:31:31.579Z,56.14
2023-01-17T22:36:33.270Z,56.03
2023-01-17T22:41:36.906Z,57.34
2023-01-17T22:46:39.117Z,56.71
2023-01-17T22:51:40.624Z,57.58
2023-01-17T22:56:42.093Z,56.27
2023-01-17T23:01:43.585Z,57.12
2023-01-17T23:06:45.118Z,57.15
2023-01-17T23:11:49.828Z,57.99
2023-01-17T23:17:16.251Z,60.99
2023-01-17T23:22:22.197Z,61.47
2023-01-17T23:27:55.991Z,61.85
2023-01-17T23:32:59.344Z,62.92
2023-01-17T23:38:19.651Z,62.14
2023-01-17T23:43:23.749Z,63.59
2023-01-17T23:48:28.287Z,62.23
2023-01-17T23:53:29.779Z,60.64
2023-01-17T23:58:32.000Z,59.29
